Campo Quijano, Argentina
Current Conditions -  °F | °C
As of 5:00 PM on Sunday 21 Dec 2014 (Local Time) from SASA Reporting Station
Overcast Overcast  
Wind Chill: 66°   Ceiling: 2000
Heat Index: 66°   Visibility: 5mi
Dew Point: 54°   Wind: 10mph
Humidity: 64%   Direction: 90°E
Pressure: 29.83"   Gusts: NA
Location:  24.92°S, 65.65°W
Report Text: SASA 212000Z 09009KT 8000 SCT010 OVC02019/12 Q1010
Loading
Personal Weather Stations






























Interactive Weather Map New forecast layout! Learn more

10-Day Weather Forecast

Advertisements
Track Severe Weather on mobile